sensor_id;sensor_type;location;lat;lon;timestamp;P1;durP1;ratioP1;P2;durP2;ratioP2
65315;SDS011;51920;53.952;10.292;2023-06-04T00:00:16;3.30;;;2.10;;
65315;SDS011;51920;53.952;10.292;2023-06-04T00:02:43;3.25;;;2.58;;
65315;SDS011;51920;53.952;10.292;2023-06-04T00:05:10;2.63;;;1.90;;
65315;SDS011;51920;53.952;10.292;2023-06-04T00:07:36;2.42;;;2.10;;
65315;SDS011;51920;53.952;10.292;2023-06-04T00:10:03;2.58;;;1.80;;
65315;SDS011;51920;53.952;10.292;2023-06-04T00:12:31;2.30;;;1.80;;
65315;SDS011;51920;53.952;10.292;2023-06-04T00:14:58;3.70;;;2.15;;
65315;SDS011;51920;53.952;10.292;2023-06-04T00:17:24;2.83;;;2.00;;
65315;SDS011;51920;53.952;10.292;2023-06-04T00:19:51;2.60;;;2.10;;
65315;SDS011;51920;53.952;10.292;2023-06-04T00:22:18;3.38;;;2.10;;
65315;SDS011;51920;53.952;10.292;2023-06-04T00:24:45;3.83;;;2.00;;
65315;SDS011;51920;53.952;10.292;2023-06-04T00:27:11;2.83;;;2.30;;
65315;SDS011;51920;53.952;10.292;2023-06-04T00:29:38;3.17;;;2.07;;
65315;SDS011;51920;53.952;10.292;2023-06-04T00:32:05;5.28;;;2.00;;
65315;SDS011;51920;53.952;10.292;2023-06-04T00:34:32;3.70;;;2.40;;
65315;SDS011;51920;53.952;10.292;2023-06-04T00:37:01;3.65;;;2.30;;
65315;SDS011;51920;53.952;10.292;2023-06-04T00:39:27;3.40;;;2.40;;
65315;SDS011;51920;53.952;10.292;2023-06-04T00:41:55;3.13;;;2.53;;
65315;SDS011;51920;53.952;10.292;2023-06-04T00:44:22;2.80;;;2.50;;
65315;SDS011;51920;53.952;10.292;2023-06-04T00:46:51;3.10;;;2.60;;
65315;SDS011;51920;53.952;10.292;2023-06-04T00:49:20;3.38;;;3.08;;
65315;SDS011;51920;53.952;10.292;2023-06-04T00:51:47;4.32;;;3.92;;
65315;SDS011;51920;53.952;10.292;2023-06-04T00:54:14;4.60;;;4.20;;
65315;SDS011;51920;53.952;10.292;2023-06-04T00:56:44;4.28;;;3.80;;
65315;SDS011;51920;53.952;10.292;2023-06-04T00:59:11;3.80;;;3.30;;
65315;SDS011;51920;53.952;10.292;2023-06-04T01:04:27;4.32;;;2.67;;
65315;SDS011;51920;53.952;10.292;2023-06-04T01:06:58;3.37;;;2.50;;
65315;SDS011;51920;53.952;10.292;2023-06-04T01:09:29;3.75;;;2.40;;
65315;SDS011;51920;53.952;10.292;2023-06-04T01:11:56;4.40;;;2.40;;
65315;SDS011;51920;53.952;10.292;2023-06-04T01:14:28;3.67;;;2.30;;
65315;SDS011;51920;53.952;10.292;2023-06-04T01:16:56;4.22;;;2.50;;
65315;SDS011;51920;53.952;10.292;2023-06-04T01:19:37;2.50;;;2.17;;
65315;SDS011;51920;53.952;10.292;2023-06-04T01:25:38;2.90;;;2.33;;
65315;SDS011;51920;53.952;10.292;2023-06-04T01:28:07;3.03;;;2.17;;
65315;SDS011;51920;53.952;10.292;2023-06-04T01:30:35;4.40;;;2.45;;
65315;SDS011;51920;53.952;10.292;2023-06-04T01:33:09;3.63;;;2.40;;
65315;SDS011;51920;53.952;10.292;2023-06-04T01:35:37;3.00;;;2.40;;
65315;SDS011;51920;53.952;10.292;2023-06-04T01:38:04;4.18;;;2.40;;
65315;SDS011;51920;53.952;10.292;2023-06-04T01:40:30;3.63;;;2.38;;
65315;SDS011;51920;53.952;10.292;2023-06-04T01:42:58;2.85;;;2.50;;
65315;SDS011;51920;53.952;10.292;2023-06-04T01:45:25;4.07;;;2.57;;
65315;SDS011;51920;53.952;10.292;2023-06-04T01:47:53;3.95;;;2.30;;
65315;SDS011;51920;53.952;10.292;2023-06-04T01:50:21;2.83;;;2.45;;
65315;SDS011;51920;53.952;10.292;2023-06-04T01:52:47;3.00;;;2.33;;
65315;SDS011;51920;53.952;10.292;2023-06-04T01:55:15;2.63;;;2.13;;
65315;SDS011;51920;53.952;10.292;2023-06-04T01:57:43;3.87;;;2.40;;
65315;SDS011;51920;53.952;10.292;2023-06-04T02:00:12;2.88;;;2.30;;
65315;SDS011;51920;53.952;10.292;2023-06-04T02:02:40;4.75;;;2.55;;
65315;SDS011;51920;53.952;10.292;2023-06-04T02:05:08;4.03;;;2.20;;
65315;SDS011;51920;53.952;10.292;2023-06-04T02:07:36;3.50;;;2.20;;
65315;SDS011;51920;53.952;10.292;2023-06-04T02:10:07;3.57;;;2.27;;
65315;SDS011;51920;53.952;10.292;2023-06-04T02:12:39;4.22;;;2.40;;
65315;SDS011;51920;53.952;10.292;2023-06-04T02:15:09;3.65;;;2.42;;
65315;SDS011;51920;53.952;10.292;2023-06-04T02:17:37;3.97;;;2.38;;
65315;SDS011;51920;53.952;10.292;2023-06-04T02:20:06;3.35;;;2.25;;
65315;SDS011;51920;53.952;10.292;2023-06-04T02:22:36;2.70;;;2.33;;
65315;SDS011;51920;53.952;10.292;2023-06-04T02:25:03;3.08;;;2.47;;
65315;SDS011;51920;53.952;10.292;2023-06-04T02:27:30;3.15;;;2.40;;
65315;SDS011;51920;53.952;10.292;2023-06-04T02:29:57;3.05;;;2.20;;
65315;SDS011;51920;53.952;10.292;2023-06-04T02:32:24;2.95;;;2.40;;
65315;SDS011;51920;53.952;10.292;2023-06-04T02:34:51;2.40;;;2.20;;
65315;SDS011;51920;53.952;10.292;2023-06-04T02:37:18;2.60;;;2.13;;
65315;SDS011;51920;53.952;10.292;2023-06-04T02:39:44;3.42;;;2.35;;
65315;SDS011;51920;53.952;10.292;2023-06-04T02:42:11;2.90;;;2.53;;
65315;SDS011;51920;53.952;10.292;2023-06-04T02:44:38;5.25;;;2.40;;
65315;SDS011;51920;53.952;10.292;2023-06-04T02:47:04;3.07;;;2.20;;
65315;SDS011;51920;53.952;10.292;2023-06-04T02:49:31;3.25;;;2.50;;
65315;SDS011;51920;53.952;10.292;2023-06-04T02:51:58;4.43;;;2.83;;
65315;SDS011;51920;53.952;10.292;2023-06-04T02:54:24;2.85;;;2.15;;
65315;SDS011;51920;53.952;10.292;2023-06-04T02:56:51;3.20;;;2.67;;
65315;SDS011;51920;53.952;10.292;2023-06-04T02:59:18;3.03;;;2.20;;
65315;SDS011;51920;53.952;10.292;2023-06-04T03:01:45;3.92;;;2.60;;
65315;SDS011;51920;53.952;10.292;2023-06-04T03:04:12;4.32;;;2.60;;
65315;SDS011;51920;53.952;10.292;2023-06-04T03:06:41;3.90;;;2.80;;
65315;SDS011;51920;53.952;10.292;2023-06-04T03:09:11;2.97;;;2.30;;
65315;SDS011;51920;53.952;10.292;2023-06-04T03:11:38;3.17;;;2.30;;
65315;SDS011;51920;53.952;10.292;2023-06-04T03:14:04;3.65;;;2.97;;
65315;SDS011;51920;53.952;10.292;2023-06-04T03:16:32;4.85;;;2.38;;
65315;SDS011;51920;53.952;10.292;2023-06-04T03:19:01;5.18;;;2.58;;
65315;SDS011;51920;53.952;10.292;2023-06-04T03:21:28;4.05;;;2.50;;
65315;SDS011;51920;53.952;10.292;2023-06-04T03:23:55;4.13;;;2.97;;
65315;SDS011;51920;53.952;10.292;2023-06-04T03:26:23;3.53;;;2.92;;
65315;SDS011;51920;53.952;10.292;2023-06-04T03:28:49;3.47;;;2.88;;
65315;SDS011;51920;53.952;10.292;2023-06-04T03:31:18;3.63;;;2.60;;
65315;SDS011;51920;53.952;10.292;2023-06-04T03:33:45;4.22;;;2.70;;
65315;SDS011;51920;53.952;10.292;2023-06-04T03:36:13;3.50;;;2.50;;
65315;SDS011;51920;53.952;10.292;2023-06-04T03:38:40;4.13;;;2.90;;
65315;SDS011;51920;53.952;10.292;2023-06-04T03:41:07;4.10;;;2.90;;
65315;SDS011;51920;53.952;10.292;2023-06-04T03:43:34;3.67;;;2.83;;
65315;SDS011;51920;53.952;10.292;2023-06-04T03:46:05;6.00;;;3.05;;
65315;SDS011;51920;53.952;10.292;2023-06-04T03:48:31;4.53;;;2.80;;
65315;SDS011;51920;53.952;10.292;2023-06-04T03:50:58;4.28;;;2.97;;
65315;SDS011;51920;53.952;10.292;2023-06-04T03:53:26;4.32;;;2.80;;
65315;SDS011;51920;53.952;10.292;2023-06-04T03:55:53;4.05;;;2.80;;
65315;SDS011;51920;53.952;10.292;2023-06-04T03:58:20;4.28;;;3.30;;
65315;SDS011;51920;53.952;10.292;2023-06-04T04:00:49;6.23;;;3.03;;
65315;SDS011;51920;53.952;10.292;2023-06-04T04:03:16;4.30;;;3.10;;
65315;SDS011;51920;53.952;10.292;2023-06-04T04:05:44;5.20;;;3.28;;
65315;SDS011;51920;53.952;10.292;2023-06-04T04:08:11;8.65;;;3.22;;
65315;SDS011;51920;53.952;10.292;2023-06-04T04:10:38;6.85;;;3.40;;
65315;SDS011;51920;53.952;10.292;2023-06-04T04:13:04;5.63;;;3.33;;
65315;SDS011;51920;53.952;10.292;2023-06-04T04:15:34;4.03;;;2.90;;
65315;SDS011;51920;53.952;10.292;2023-06-04T04:18:02;6.10;;;3.20;;
65315;SDS011;51920;53.952;10.292;2023-06-04T04:20:29;4.22;;;3.00;;
65315;SDS011;51920;53.952;10.292;2023-06-04T04:23:01;4.40;;;2.97;;
65315;SDS011;51920;53.952;10.292;2023-06-04T04:25:29;8.60;;;3.30;;
65315;SDS011;51920;53.952;10.292;2023-06-04T04:27:56;7.50;;;3.42;;
65315;SDS011;51920;53.952;10.292;2023-06-04T04:30:23;6.25;;;3.38;;
65315;SDS011;51920;53.952;10.292;2023-06-04T04:32:51;7.22;;;3.70;;
65315;SDS011;51920;53.952;10.292;2023-06-04T04:35:27;6.72;;;3.38;;
65315;SDS011;51920;53.952;10.292;2023-06-04T04:37:57;8.80;;;3.43;;
65315;SDS011;51920;53.952;10.292;2023-06-04T04:40:25;5.60;;;3.20;;
65315;SDS011;51920;53.952;10.292;2023-06-04T04:42:55;6.72;;;3.97;;
65315;SDS011;51920;53.952;10.292;2023-06-04T04:45:22;6.22;;;3.25;;
65315;SDS011;51920;53.952;10.292;2023-06-04T04:47:51;6.95;;;3.15;;
65315;SDS011;51920;53.952;10.292;2023-06-04T04:50:17;6.83;;;3.40;;
65315;SDS011;51920;53.952;10.292;2023-06-04T04:52:44;6.25;;;2.90;;
65315;SDS011;51920;53.952;10.292;2023-06-04T04:55:11;5.28;;;3.30;;
65315;SDS011;51920;53.952;10.292;2023-06-04T04:57:45;6.80;;;3.13;;
65315;SDS011;51920;53.952;10.292;2023-06-04T05:00:12;7.03;;;3.20;;
65315;SDS011;51920;53.952;10.292;2023-06-04T05:02:42;7.43;;;3.10;;
65315;SDS011;51920;53.952;10.292;2023-06-04T05:05:10;7.28;;;3.35;;
65315;SDS011;51920;53.952;10.292;2023-06-04T05:07:43;10.57;;;3.35;;
65315;SDS011;51920;53.952;10.292;2023-06-04T05:10:10;5.07;;;3.08;;
65315;SDS011;51920;53.952;10.292;2023-06-04T05:12:58;8.00;;;3.10;;
65315;SDS011;51920;53.952;10.292;2023-06-04T05:15:36;6.33;;;3.00;;
65315;SDS011;51920;53.952;10.292;2023-06-04T05:18:03;4.43;;;2.67;;
65315;SDS011;51920;53.952;10.292;2023-06-04T05:20:33;6.30;;;3.00;;
65315;SDS011;51920;53.952;10.292;2023-06-04T05:23:01;5.43;;;3.00;;
65315;SDS011;51920;53.952;10.292;2023-06-04T05:25:28;6.32;;;2.78;;
65315;SDS011;51920;53.952;10.292;2023-06-04T05:27:56;5.50;;;2.80;;
65315;SDS011;51920;53.952;10.292;2023-06-04T05:30:23;6.00;;;2.80;;
65315;SDS011;51920;53.952;10.292;2023-06-04T05:32:50;6.40;;;2.85;;
65315;SDS011;51920;53.952;10.292;2023-06-04T05:35:22;6.82;;;3.13;;
65315;SDS011;51920;53.952;10.292;2023-06-04T05:37:49;6.88;;;2.90;;
65315;SDS011;51920;53.952;10.292;2023-06-04T05:40:23;6.33;;;2.60;;
65315;SDS011;51920;53.952;10.292;2023-06-04T05:42:50;7.20;;;2.80;;
65315;SDS011;51920;53.952;10.292;2023-06-04T05:45:17;5.65;;;2.53;;
65315;SDS011;51920;53.952;10.292;2023-06-04T05:47:44;8.48;;;2.80;;
65315;SDS011;51920;53.952;10.292;2023-06-04T05:50:10;5.32;;;2.95;;
65315;SDS011;51920;53.952;10.292;2023-06-04T05:52:38;5.23;;;2.40;;
65315;SDS011;51920;53.952;10.292;2023-06-04T05:55:09;4.65;;;2.50;;
65315;SDS011;51920;53.952;10.292;2023-06-04T05:57:37;5.90;;;2.70;;
65315;SDS011;51920;53.952;10.292;2023-06-04T06:00:04;5.40;;;2.38;;
65315;SDS011;51920;53.952;10.292;2023-06-04T06:02:39;7.38;;;2.88;;
65315;SDS011;51920;53.952;10.292;2023-06-04T06:05:18;5.07;;;2.13;;
65315;SDS011;51920;53.952;10.292;2023-06-04T06:07:45;4.60;;;2.10;;
65315;SDS011;51920;53.952;10.292;2023-06-04T06:10:12;4.35;;;2.20;;
65315;SDS011;51920;53.952;10.292;2023-06-04T06:12:43;4.60;;;2.47;;
65315;SDS011;51920;53.952;10.292;2023-06-04T06:15:10;5.07;;;2.10;;
65315;SDS011;51920;53.952;10.292;2023-06-04T06:17:38;5.30;;;2.00;;
65315;SDS011;51920;53.952;10.292;2023-06-04T06:20:05;5.03;;;2.03;;
65315;SDS011;51920;53.952;10.292;2023-06-04T06:22:34;5.40;;;2.03;;
65315;SDS011;51920;53.952;10.292;2023-06-04T06:25:02;6.53;;;2.20;;
65315;SDS011;51920;53.952;10.292;2023-06-04T06:27:33;4.05;;;2.10;;
65315;SDS011;51920;53.952;10.292;2023-06-04T06:30:01;3.83;;;1.80;;
65315;SDS011;51920;53.952;10.292;2023-06-04T06:32:29;5.15;;;1.80;;
65315;SDS011;51920;53.952;10.292;2023-06-04T06:34:55;3.22;;;1.70;;
65315;SDS011;51920;53.952;10.292;2023-06-04T06:37:25;3.92;;;1.70;;
65315;SDS011;51920;53.952;10.292;2023-06-04T06:39:57;4.25;;;2.10;;
65315;SDS011;51920;53.952;10.292;2023-06-04T06:42:41;3.70;;;2.10;;
65315;SDS011;51920;53.952;10.292;2023-06-04T06:45:08;4.22;;;2.03;;
65315;SDS011;51920;53.952;10.292;2023-06-04T06:47:37;6.40;;;2.00;;
65315;SDS011;51920;53.952;10.292;2023-06-04T06:50:04;3.88;;;1.80;;
65315;SDS011;51920;53.952;10.292;2023-06-04T06:52:32;4.15;;;1.92;;
65315;SDS011;51920;53.952;10.292;2023-06-04T06:54:59;6.37;;;2.00;;
65315;SDS011;51920;53.952;10.292;2023-06-04T06:57:27;4.28;;;1.70;;
65315;SDS011;51920;53.952;10.292;2023-06-04T06:59:54;3.75;;;2.00;;
65315;SDS011;51920;53.952;10.292;2023-06-04T07:02:30;4.55;;;1.70;;
65315;SDS011;51920;53.952;10.292;2023-06-04T07:04:57;3.88;;;1.90;;
65315;SDS011;51920;53.952;10.292;2023-06-04T07:07:23;3.80;;;1.73;;
65315;SDS011;51920;53.952;10.292;2023-06-04T07:12:26;3.60;;;1.92;;
65315;SDS011;51920;53.952;10.292;2023-06-04T07:14:52;3.88;;;1.73;;
65315;SDS011;51920;53.952;10.292;2023-06-04T07:17:19;3.88;;;1.40;;
65315;SDS011;51920;53.952;10.292;2023-06-04T07:19:47;3.57;;;1.53;;
65315;SDS011;51920;53.952;10.292;2023-06-04T07:22:14;3.13;;;1.90;;
65315;SDS011;51920;53.952;10.292;2023-06-04T07:24:43;4.97;;;1.90;;
65315;SDS011;51920;53.952;10.292;2023-06-04T07:27:11;3.45;;;1.70;;
65315;SDS011;51920;53.952;10.292;2023-06-04T07:29:39;3.97;;;1.92;;
65315;SDS011;51920;53.952;10.292;2023-06-04T07:32:06;2.10;;;1.40;;
65315;SDS011;51920;53.952;10.292;2023-06-04T07:34:33;4.07;;;1.60;;
65315;SDS011;51920;53.952;10.292;2023-06-04T07:37:01;4.63;;;1.63;;
65315;SDS011;51920;53.952;10.292;2023-06-04T07:39:29;4.55;;;1.70;;
65315;SDS011;51920;53.952;10.292;2023-06-04T07:41:56;2.55;;;1.52;;
65315;SDS011;51920;53.952;10.292;2023-06-04T07:44:23;2.93;;;1.60;;
65315;SDS011;51920;53.952;10.292;2023-06-04T07:46:50;2.00;;;1.50;;
65315;SDS011;51920;53.952;10.292;2023-06-04T07:49:17;2.83;;;1.40;;
65315;SDS011;51920;53.952;10.292;2023-06-04T07:51:43;4.53;;;1.80;;
65315;SDS011;51920;53.952;10.292;2023-06-04T07:54:10;3.30;;;1.80;;
65315;SDS011;51920;53.952;10.292;2023-06-04T07:56:37;5.27;;;1.97;;
65315;SDS011;51920;53.952;10.292;2023-06-04T07:59:04;4.13;;;1.63;;
65315;SDS011;51920;53.952;10.292;2023-06-04T08:01:31;2.60;;;1.50;;
65315;SDS011;51920;53.952;10.292;2023-06-04T08:03:58;3.80;;;1.70;;
65315;SDS011;51920;53.952;10.292;2023-06-04T08:06:28;3.13;;;1.63;;
65315;SDS011;51920;53.952;10.292;2023-06-04T08:08:55;2.80;;;1.50;;
65315;SDS011;51920;53.952;10.292;2023-06-04T08:11:22;2.42;;;1.50;;
65315;SDS011;51920;53.952;10.292;2023-06-04T08:13:52;3.55;;;1.60;;
65315;SDS011;51920;53.952;10.292;2023-06-04T08:16:19;2.83;;;1.60;;
65315;SDS011;51920;53.952;10.292;2023-06-04T08:18:46;3.10;;;1.70;;
65315;SDS011;51920;53.952;10.292;2023-06-04T08:21:13;2.57;;;1.40;;
65315;SDS011;51920;53.952;10.292;2023-06-04T08:23:43;3.28;;;1.33;;
65315;SDS011;51920;53.952;10.292;2023-06-04T08:26:10;2.40;;;1.58;;
65315;SDS011;51920;53.952;10.292;2023-06-04T08:28:38;2.47;;;1.30;;
65315;SDS011;51920;53.952;10.292;2023-06-04T08:31:05;3.22;;;1.50;;
65315;SDS011;51920;53.952;10.292;2023-06-04T08:33:32;2.53;;;1.30;;
65315;SDS011;51920;53.952;10.292;2023-06-04T08:35:59;2.50;;;1.42;;
65315;SDS011;51920;53.952;10.292;2023-06-04T08:38:26;2.70;;;1.40;;
65315;SDS011;51920;53.952;10.292;2023-06-04T08:40:53;3.25;;;1.38;;
65315;SDS011;51920;53.952;10.292;2023-06-04T08:43:24;3.30;;;1.60;;
65315;SDS011;51920;53.952;10.292;2023-06-04T08:45:52;2.43;;;1.50;;
65315;SDS011;51920;53.952;10.292;2023-06-04T08:48:26;3.33;;;1.23;;
65315;SDS011;51920;53.952;10.292;2023-06-04T08:50:55;2.90;;;1.45;;
65315;SDS011;51920;53.952;10.292;2023-06-04T08:53:23;2.13;;;1.40;;
65315;SDS011;51920;53.952;10.292;2023-06-04T08:55:51;2.90;;;1.38;;
65315;SDS011;51920;53.952;10.292;2023-06-04T08:58:20;3.07;;;1.30;;
65315;SDS011;51920;53.952;10.292;2023-06-04T09:00:48;2.97;;;1.50;;
65315;SDS011;51920;53.952;10.292;2023-06-04T09:03:15;4.18;;;1.27;;
65315;SDS011;51920;53.952;10.292;2023-06-04T09:05:42;3.47;;;1.40;;
65315;SDS011;51920;53.952;10.292;2023-06-04T09:08:14;2.28;;;1.30;;
65315;SDS011;51920;53.952;10.292;2023-06-04T09:10:43;3.60;;;1.30;;
65315;SDS011;51920;53.952;10.292;2023-06-04T09:13:15;2.38;;;1.20;;
65315;SDS011;51920;53.952;10.292;2023-06-04T09:15:45;2.22;;;1.35;;
65315;SDS011;51920;53.952;10.292;2023-06-04T09:18:12;3.13;;;1.30;;
65315;SDS011;51920;53.952;10.292;2023-06-04T09:20:39;1.75;;;1.20;;
65315;SDS011;51920;53.952;10.292;2023-06-04T09:23:12;2.20;;;1.50;;
65315;SDS011;51920;53.952;10.292;2023-06-04T09:25:42;2.50;;;1.27;;
65315;SDS011;51920;53.952;10.292;2023-06-04T09:28:10;2.95;;;1.40;;
65315;SDS011;51920;53.952;10.292;2023-06-04T09:30:37;2.88;;;1.30;;
65315;SDS011;51920;53.952;10.292;2023-06-04T09:33:09;3.33;;;1.42;;
65315;SDS011;51920;53.952;10.292;2023-06-04T09:35:36;3.10;;;1.50;;
65315;SDS011;51920;53.952;10.292;2023-06-04T09:38:04;2.35;;;1.20;;
65315;SDS011;51920;53.952;10.292;2023-06-04T09:40:35;2.72;;;1.30;;
65315;SDS011;51920;53.952;10.292;2023-06-04T09:43:06;2.30;;;1.30;;
65315;SDS011;51920;53.952;10.292;2023-06-04T09:45:34;2.65;;;1.10;;
65315;SDS011;51920;53.952;10.292;2023-06-04T09:48:02;3.77;;;1.30;;
65315;SDS011;51920;53.952;10.292;2023-06-04T09:50:33;2.00;;;1.10;;
65315;SDS011;51920;53.952;10.292;2023-06-04T09:53:12;1.83;;;1.02;;
65315;SDS011;51920;53.952;10.292;2023-06-04T09:55:43;1.83;;;1.10;;
65315;SDS011;51920;53.952;10.292;2023-06-04T09:58:10;1.42;;;1.20;;
65315;SDS011;51920;53.952;10.292;2023-06-04T10:00:38;2.23;;;1.20;;
65315;SDS011;51920;53.952;10.292;2023-06-04T10:03:05;2.10;;;1.30;;
65315;SDS011;51920;53.952;10.292;2023-06-04T10:05:36;1.90;;;1.50;;
65315;SDS011;51920;53.952;10.292;2023-06-04T10:08:03;1.65;;;1.20;;
65315;SDS011;51920;53.952;10.292;2023-06-04T10:10:34;1.90;;;1.20;;
65315;SDS011;51920;53.952;10.292;2023-06-04T10:13:09;2.13;;;1.60;;
65315;SDS011;51920;53.952;10.292;2023-06-04T10:15:43;2.47;;;1.90;;
65315;SDS011;51920;53.952;10.292;2023-06-04T10:18:11;2.88;;;1.70;;
65315;SDS011;51920;53.952;10.292;2023-06-04T10:20:40;3.00;;;1.13;;
65315;SDS011;51920;53.952;10.292;2023-06-04T10:23:07;1.30;;;1.00;;
65315;SDS011;51920;53.952;10.292;2023-06-04T10:25:35;3.07;;;1.03;;
65315;SDS011;51920;53.952;10.292;2023-06-04T10:28:02;3.05;;;1.00;;
65315;SDS011;51920;53.952;10.292;2023-06-04T10:30:30;1.40;;;0.90;;
65315;SDS011;51920;53.952;10.292;2023-06-04T10:32:57;2.03;;;1.10;;
65315;SDS011;51920;53.952;10.292;2023-06-04T10:35:44;1.70;;;1.10;;
65315;SDS011;51920;53.952;10.292;2023-06-04T10:38:12;1.20;;;1.00;;
65315;SDS011;51920;53.952;10.292;2023-06-04T10:40:40;2.30;;;1.10;;
65315;SDS011;51920;53.952;10.292;2023-06-04T10:43:08;1.40;;;1.00;;
65315;SDS011;51920;53.952;10.292;2023-06-04T10:45:36;1.80;;;1.05;;
65315;SDS011;51920;53.952;10.292;2023-06-04T10:48:04;2.17;;;1.05;;
65315;SDS011;51920;53.952;10.292;2023-06-04T10:50:33;1.70;;;1.00;;
65315;SDS011;51920;53.952;10.292;2023-06-04T10:53:01;1.65;;;0.93;;
65315;SDS011;51920;53.952;10.292;2023-06-04T10:55:29;2.03;;;1.15;;
65315;SDS011;51920;53.952;10.292;2023-06-04T10:57:58;3.50;;;1.30;;
65315;SDS011;51920;53.952;10.292;2023-06-04T11:00:38;1.92;;;1.20;;
65315;SDS011;51920;53.952;10.292;2023-06-04T11:03:10;2.20;;;1.40;;
65315;SDS011;51920;53.952;10.292;2023-06-04T11:05:41;1.92;;;1.05;;
65315;SDS011;51920;53.952;10.292;2023-06-04T11:08:09;2.53;;;1.33;;
65315;SDS011;51920;53.952;10.292;2023-06-04T11:10:41;1.55;;;1.13;;
65315;SDS011;51920;53.952;10.292;2023-06-04T11:13:09;2.08;;;1.20;;
65315;SDS011;51920;53.952;10.292;2023-06-04T11:15:37;3.13;;;1.20;;
65315;SDS011;51920;53.952;10.292;2023-06-04T11:18:06;1.48;;;1.00;;
65315;SDS011;51920;53.952;10.292;2023-06-04T11:20:34;2.65;;;1.60;;
65315;SDS011;51920;53.952;10.292;2023-06-04T11:23:01;2.38;;;1.10;;
65315;SDS011;51920;53.952;10.292;2023-06-04T11:25:30;2.60;;;1.20;;
65315;SDS011;51920;53.952;10.292;2023-06-04T11:28:01;1.80;;;1.20;;
65315;SDS011;51920;53.952;10.292;2023-06-04T11:30:30;2.50;;;1.27;;
65315;SDS011;51920;53.952;10.292;2023-06-04T11:33:01;1.85;;;1.23;;
65315;SDS011;51920;53.952;10.292;2023-06-04T11:35:39;1.80;;;1.10;;
65315;SDS011;51920;53.952;10.292;2023-06-04T11:38:08;2.67;;;1.20;;
65315;SDS011;51920;53.952;10.292;2023-06-04T11:40:36;2.30;;;1.27;;
65315;SDS011;51920;53.952;10.292;2023-06-04T11:43:02;2.80;;;1.50;;
65315;SDS011;51920;53.952;10.292;2023-06-04T11:45:29;2.00;;;1.55;;
65315;SDS011;51920;53.952;10.292;2023-06-04T11:47:57;1.88;;;1.38;;
65315;SDS011;51920;53.952;10.292;2023-06-04T11:50:27;3.00;;;1.30;;
65315;SDS011;51920;53.952;10.292;2023-06-04T11:52:55;3.10;;;1.30;;
65315;SDS011;51920;53.952;10.292;2023-06-04T11:55:22;2.17;;;1.23;;
65315;SDS011;51920;53.952;10.292;2023-06-04T11:57:50;2.53;;;1.30;;
65315;SDS011;51920;53.952;10.292;2023-06-04T12:00:17;2.22;;;1.23;;
65315;SDS011;51920;53.952;10.292;2023-06-04T12:02:49;4.18;;;1.38;;
65315;SDS011;51920;53.952;10.292;2023-06-04T12:05:17;2.40;;;1.50;;
65315;SDS011;51920;53.952;10.292;2023-06-04T12:07:49;2.08;;;1.23;;
65315;SDS011;51920;53.952;10.292;2023-06-04T12:10:20;3.33;;;1.30;;
65315;SDS011;51920;53.952;10.292;2023-06-04T12:12:53;2.55;;;1.40;;
65315;SDS011;51920;53.952;10.292;2023-06-04T12:15:22;2.05;;;1.30;;
65315;SDS011;51920;53.952;10.292;2023-06-04T12:17:49;2.43;;;1.30;;
65315;SDS011;51920;53.952;10.292;2023-06-04T12:20:32;2.75;;;1.20;;
65315;SDS011;51920;53.952;10.292;2023-06-04T12:23:01;1.95;;;1.50;;
65315;SDS011;51920;53.952;10.292;2023-06-04T12:25:28;1.52;;;1.10;;
65315;SDS011;51920;53.952;10.292;2023-06-04T12:27:56;2.10;;;1.42;;
65315;SDS011;51920;53.952;10.292;2023-06-04T12:30:34;2.60;;;1.50;;
65315;SDS011;51920;53.952;10.292;2023-06-04T12:33:02;2.38;;;1.33;;
65315;SDS011;51920;53.952;10.292;2023-06-04T12:35:28;2.55;;;1.45;;
65315;SDS011;51920;53.952;10.292;2023-06-04T12:37:55;3.78;;;1.45;;
65315;SDS011;51920;53.952;10.292;2023-06-04T12:40:22;3.30;;;1.63;;
65315;SDS011;51920;53.952;10.292;2023-06-04T12:42:49;3.37;;;1.47;;
65315;SDS011;51920;53.952;10.292;2023-06-04T12:45:17;2.83;;;1.50;;
65315;SDS011;51920;53.952;10.292;2023-06-04T12:47:44;2.85;;;1.50;;
65315;SDS011;51920;53.952;10.292;2023-06-04T12:50:11;1.92;;;1.40;;
65315;SDS011;51920;53.952;10.292;2023-06-04T12:52:38;2.88;;;1.50;;
65315;SDS011;51920;53.952;10.292;2023-06-04T12:55:05;1.60;;;1.40;;
65315;SDS011;51920;53.952;10.292;2023-06-04T12:57:32;3.35;;;1.40;;
65315;SDS011;51920;53.952;10.292;2023-06-04T12:59:59;3.45;;;1.60;;
65315;SDS011;51920;53.952;10.292;2023-06-04T13:02:25;3.42;;;1.50;;
65315;SDS011;51920;53.952;10.292;2023-06-04T13:04:52;3.28;;;1.70;;
65315;SDS011;51920;53.952;10.292;2023-06-04T13:07:23;2.17;;;1.37;;
65315;SDS011;51920;53.952;10.292;2023-06-04T13:09:52;3.40;;;1.35;;
65315;SDS011;51920;53.952;10.292;2023-06-04T13:12:19;2.85;;;1.40;;
65315;SDS011;51920;53.952;10.292;2023-06-04T13:14:50;2.33;;;1.40;;
65315;SDS011;51920;53.952;10.292;2023-06-04T13:17:23;2.83;;;1.48;;
65315;SDS011;51920;53.952;10.292;2023-06-04T13:19:50;3.00;;;1.53;;
65315;SDS011;51920;53.952;10.292;2023-06-04T13:22:18;2.22;;;1.50;;
65315;SDS011;51920;53.952;10.292;2023-06-04T13:24:44;2.95;;;1.63;;
65315;SDS011;51920;53.952;10.292;2023-06-04T13:27:11;2.03;;;1.30;;
65315;SDS011;51920;53.952;10.292;2023-06-04T13:29:38;2.88;;;1.60;;
65315;SDS011;51920;53.952;10.292;2023-06-04T13:32:05;5.67;;;1.80;;
65315;SDS011;51920;53.952;10.292;2023-06-04T13:34:32;2.58;;;1.50;;
65315;SDS011;51920;53.952;10.292;2023-06-04T13:36:59;3.13;;;1.52;;
65315;SDS011;51920;53.952;10.292;2023-06-04T13:39:28;2.67;;;1.45;;
65315;SDS011;51920;53.952;10.292;2023-06-04T13:41:57;4.38;;;1.50;;
65315;SDS011;51920;53.952;10.292;2023-06-04T13:44:29;2.40;;;1.40;;
65315;SDS011;51920;53.952;10.292;2023-06-04T13:47:01;3.13;;;1.40;;
65315;SDS011;51920;53.952;10.292;2023-06-04T13:49:33;2.00;;;1.40;;
65315;SDS011;51920;53.952;10.292;2023-06-04T13:52:12;3.33;;;1.52;;
65315;SDS011;51920;53.952;10.292;2023-06-04T13:54:46;2.95;;;1.60;;
65315;SDS011;51920;53.952;10.292;2023-06-04T13:57:16;2.93;;;1.43;;
65315;SDS011;51920;53.952;10.292;2023-06-04T13:59:42;3.97;;;1.63;;
65315;SDS011;51920;53.952;10.292;2023-06-04T14:02:12;2.28;;;1.67;;
65315;SDS011;51920;53.952;10.292;2023-06-04T14:04:44;2.55;;;1.50;;
65315;SDS011;51920;53.952;10.292;2023-06-04T14:07:24;3.05;;;1.52;;
65315;SDS011;51920;53.952;10.292;2023-06-04T14:09:52;2.60;;;1.50;;
65315;SDS011;51920;53.952;10.292;2023-06-04T14:12:21;2.95;;;1.60;;
65315;SDS011;51920;53.952;10.292;2023-06-04T14:14:51;2.15;;;1.50;;
65315;SDS011;51920;53.952;10.292;2023-06-04T14:17:31;3.40;;;1.55;;
65315;SDS011;51920;53.952;10.292;2023-06-04T14:19:58;2.25;;;1.50;;
65315;SDS011;51920;53.952;10.292;2023-06-04T14:22:54;2.63;;;1.40;;
65315;SDS011;51920;53.952;10.292;2023-06-04T14:25:26;4.07;;;1.40;;
65315;SDS011;51920;53.952;10.292;2023-06-04T14:27:53;2.80;;;1.70;;
65315;SDS011;51920;53.952;10.292;2023-06-04T14:30:23;4.70;;;1.60;;
65315;SDS011;51920;53.952;10.292;2023-06-04T14:32:49;3.20;;;1.60;;
65315;SDS011;51920;53.952;10.292;2023-06-04T14:35:16;2.33;;;1.50;;
65315;SDS011;51920;53.952;10.292;2023-06-04T14:37:43;3.17;;;1.60;;
65315;SDS011;51920;53.952;10.292;2023-06-04T14:40:10;2.72;;;2.00;;
65315;SDS011;51920;53.952;10.292;2023-06-04T14:42:37;3.70;;;1.73;;
65315;SDS011;51920;53.952;10.292;2023-06-04T14:45:03;3.83;;;1.80;;
65315;SDS011;51920;53.952;10.292;2023-06-04T14:47:33;3.40;;;1.70;;
65315;SDS011;51920;53.952;10.292;2023-06-04T14:50:00;2.83;;;1.58;;